createdAt,value
2017-10-11T00:00:41.617Z,3.60
2017-10-11T00:03:09.236Z,3.40
2017-10-11T00:05:45.451Z,2.30
2017-10-11T00:08:13.808Z,2.10
2017-10-11T00:10:41.391Z,2.87
2017-10-11T00:13:09.814Z,2.57
2017-10-11T00:15:44.047Z,3.70
2017-10-11T00:18:11.645Z,3.23
2017-10-11T00:20:39.252Z,4.57
2017-10-11T00:23:06.844Z,2.90
2017-10-11T00:25:34.442Z,2.90
2017-10-11T00:28:02.011Z,2.60
2017-10-11T00:30:30.385Z,2.70
2017-10-11T00:32:57.973Z,3.00
2017-10-11T00:35:26.323Z,4.17
2017-10-11T00:37:53.888Z,1.90
2017-10-11T00:40:21.483Z,2.47
2017-10-11T00:42:49.102Z,2.40
2017-10-11T00:45:16.715Z,2.67
2017-10-11T00:47:44.283Z,1.90
2017-10-11T00:50:11.873Z,2.30
2017-10-11T00:52:39.483Z,2.93
2017-10-11T00:55:07.058Z,3.40
2017-10-11T00:57:35.626Z,3.13
2017-10-11T01:00:03.208Z,3.30
2017-10-11T01:02:31.618Z,2.90
2017-10-11T01:04:59.194Z,2.40
2017-10-11T01:07:26.791Z,3.20
2017-10-11T01:09:54.402Z,2.90
2017-10-11T01:12:21.971Z,3.67
2017-10-11T01:14:49.659Z,2.70
2017-10-11T01:17:17.248Z,3.70
2017-10-11T01:19:44.862Z,2.87
2017-10-11T01:22:12.438Z,3.20
2017-10-11T01:24:40.031Z,2.17
2017-10-11T01:27:07.783Z,3.50
2017-10-11T01:29:35.384Z,3.33
2017-10-11T01:32:02.960Z,2.90
2017-10-11T01:34:30.784Z,2.57
2017-10-11T01:36:58.765Z,2.20
2017-10-11T01:39:26.932Z,2.87
2017-10-11T01:41:54.503Z,3.60
2017-10-11T01:44:22.112Z,3.30
2017-10-11T01:46:50.450Z,2.63
2017-10-11T01:49:18.038Z,2.10
2017-10-11T01:51:45.606Z,2.70
2017-10-11T01:54:13.237Z,2.87
2017-10-11T01:56:40.833Z,2.07
2017-10-11T01:59:09.245Z,2.60
2017-10-11T02:01:37.590Z,3.20
2017-10-11T02:04:05.733Z,2.40
2017-10-11T02:06:34.592Z,3.13
2017-10-11T02:09:02.961Z,2.73
2017-10-11T02:11:31.330Z,2.00
2017-10-11T02:13:58.913Z,2.50
2017-10-11T02:16:27.271Z,3.00
2017-10-11T02:18:54.878Z,2.50
2017-10-11T02:21:23.236Z,1.67
2017-10-11T02:23:50.790Z,2.13
2017-10-11T02:26:18.383Z,2.70
2017-10-11T02:28:46.709Z,2.70
2017-10-11T02:31:14.286Z,2.33
2017-10-11T02:33:41.863Z,2.53
2017-10-11T02:36:09.559Z,1.93
2017-10-11T02:38:37.980Z,2.57
2017-10-11T02:41:05.607Z,2.20
2017-10-11T02:43:35.604Z,2.20
2017-10-11T02:46:03.179Z,2.13
2017-10-11T02:48:31.004Z,2.70
2017-10-11T02:50:58.565Z,3.17
2017-10-11T02:53:26.170Z,1.83
2017-10-11T02:55:53.732Z,2.57
2017-10-11T02:58:21.337Z,2.37
2017-10-11T03:00:49.259Z,3.17
2017-10-11T03:03:17.325Z,3.27
2017-10-11T03:05:44.931Z,2.13
2017-10-11T03:08:13.261Z,2.50
2017-10-11T03:10:40.916Z,2.50
2017-10-11T03:13:08.543Z,1.80
2017-10-11T03:15:39.917Z,2.03
2017-10-11T03:18:07.645Z,1.93
2017-10-11T03:20:35.984Z,2.13
2017-10-11T03:23:03.606Z,1.93
2017-10-11T03:25:31.218Z,2.10
2017-10-11T03:27:58.791Z,2.40
2017-10-11T03:30:28.010Z,2.70
2017-10-11T03:32:55.579Z,2.20
2017-10-11T03:35:23.168Z,3.13
2017-10-11T03:37:51.517Z,2.97
2017-10-11T03:40:19.344Z,2.60
2017-10-11T03:42:47.405Z,2.43
2017-10-11T03:45:15.089Z,2.63
2017-10-11T03:47:42.810Z,3.90
2017-10-11T03:50:10.529Z,3.13
2017-10-11T03:52:38.112Z,2.17
2017-10-11T03:55:05.739Z,2.20
2017-10-11T03:57:33.321Z,1.80
2017-10-11T04:00:00.945Z,2.37
2017-10-11T04:02:29.279Z,2.23
2017-10-11T04:04:56.857Z,2.13
2017-10-11T04:07:24.450Z,1.30
2017-10-11T04:09:52.772Z,1.80
2017-10-11T04:12:20.367Z,2.00
2017-10-11T04:14:47.958Z,1.70
2017-10-11T04:17:16.593Z,2.90
2017-10-11T04:19:44.183Z,2.10
2017-10-11T04:22:11.933Z,2.20
2017-10-11T04:24:40.145Z,2.07
2017-10-11T04:27:07.709Z,1.90
2017-10-11T04:29:37.799Z,2.77
2017-10-11T04:32:05.391Z,1.80
2017-10-11T04:34:33.716Z,2.53
2017-10-11T04:37:01.321Z,2.07
2017-10-11T04:39:28.905Z,2.27
2017-10-11T04:41:56.516Z,2.10
2017-10-11T04:44:24.084Z,2.30
2017-10-11T04:46:51.691Z,2.60
2017-10-11T04:49:19.253Z,2.00
2017-10-11T04:51:46.944Z,1.97
2017-10-11T04:54:15.312Z,1.77
2017-10-11T04:56:44.457Z,2.10
2017-10-11T04:59:12.136Z,2.37
2017-10-11T05:01:39.707Z,2.23
2017-10-11T05:04:07.366Z,1.20
2017-10-11T05:06:34.969Z,3.03
2017-10-11T05:09:02.558Z,1.90
2017-10-11T05:11:30.905Z,2.33
2017-10-11T05:13:59.990Z,2.20
2017-10-11T05:16:27.663Z,2.63
2017-10-11T05:18:55.220Z,2.97
2017-10-11T05:21:22.777Z,1.73
2017-10-11T05:23:50.492Z,1.50
2017-10-11T05:26:18.853Z,2.17
2017-10-11T05:28:48.020Z,2.43
2017-10-11T05:31:15.694Z,2.30
2017-10-11T05:33:43.315Z,2.10
2017-10-11T05:36:11.703Z,2.33
2017-10-11T05:38:39.516Z,2.23
2017-10-11T05:41:07.111Z,2.60
2017-10-11T05:43:35.459Z,1.93
2017-10-11T05:46:03.069Z,2.37
2017-10-11T05:48:31.425Z,2.57
2017-10-11T05:50:59.164Z,2.60
2017-10-11T05:53:26.749Z,1.90
2017-10-11T05:55:54.318Z,1.93
2017-10-11T05:58:21.959Z,2.40
2017-10-11T06:00:49.554Z,1.77
2017-10-11T06:03:17.911Z,2.13
2017-10-11T06:05:45.464Z,2.83
2017-10-11T06:08:13.074Z,3.30
2017-10-11T06:10:40.665Z,2.80
2017-10-11T06:13:08.260Z,3.13
2017-10-11T06:15:35.841Z,2.40
2017-10-11T06:18:03.447Z,1.93
2017-10-11T06:20:31.779Z,2.33
2017-10-11T06:22:59.657Z,1.77
2017-10-11T06:25:27.247Z,2.70
2017-10-11T06:27:55.588Z,2.07
2017-10-11T06:30:23.196Z,2.37
2017-10-11T06:32:50.761Z,2.20
2017-10-11T06:35:18.366Z,2.00
2017-10-11T06:37:45.938Z,2.03
2017-10-11T06:40:13.519Z,2.07
2017-10-11T06:42:41.115Z,1.80
2017-10-11T06:45:08.671Z,1.90
2017-10-11T06:47:36.262Z,2.30
2017-10-11T06:50:04.595Z,1.67
2017-10-11T06:52:32.173Z,2.27
2017-10-11T06:54:59.905Z,2.10
2017-10-11T06:57:27.631Z,1.57
2017-10-11T06:59:55.967Z,2.60
2017-10-11T07:02:23.629Z,1.80
2017-10-11T07:04:51.241Z,1.47
2017-10-11T07:07:19.978Z,2.10
2017-10-11T07:09:47.896Z,1.40
2017-10-11T07:12:15.694Z,2.40
2017-10-11T07:14:43.313Z,1.90
2017-10-11T07:17:10.895Z,1.47
2017-10-11T07:19:38.516Z,2.47
2017-10-11T07:22:06.105Z,1.80
2017-10-11T07:24:33.698Z,1.60
2017-10-11T07:27:02.049Z,2.23
2017-10-11T07:29:29.666Z,2.10
2017-10-11T07:31:57.234Z,1.90
2017-10-11T07:34:24.822Z,2.30
2017-10-11T07:36:52.420Z,1.97
2017-10-11T07:39:20.046Z,2.10
2017-10-11T07:41:47.799Z,1.80
2017-10-11T07:44:15.520Z,1.77
2017-10-11T07:46:44.623Z,1.70
2017-10-11T07:49:12.266Z,1.93
2017-10-11T07:51:40.231Z,2.13
2017-10-11T07:54:07.801Z,2.37
2017-10-11T07:56:36.162Z,1.83
2017-10-11T07:59:03.741Z,1.83
2017-10-11T08:01:31.310Z,1.90
2017-10-11T08:03:58.921Z,2.10
2017-10-11T08:06:27.256Z,2.20
2017-10-11T08:08:54.870Z,2.43
2017-10-11T08:11:23.203Z,2.10
2017-10-11T08:13:50.809Z,2.50
2017-10-11T08:16:19.185Z,2.10
2017-10-11T08:18:46.811Z,1.90
2017-10-11T08:21:14.397Z,2.20
2017-10-11T08:23:42.122Z,1.87
2017-10-11T08:26:09.722Z,1.87
2017-10-11T08:28:37.334Z,1.40
2017-10-11T08:31:04.924Z,1.60
2017-10-11T08:33:32.519Z,1.10
2017-10-11T08:36:00.101Z,1.27
2017-10-11T08:38:28.482Z,1.47
2017-10-11T08:40:56.805Z,1.43
2017-10-11T08:43:24.534Z,1.53
2017-10-11T08:45:52.115Z,1.23
2017-10-11T08:48:20.503Z,1.80
2017-10-11T08:50:54.967Z,1.37
2017-10-11T08:53:22.583Z,1.10
2017-10-11T08:55:51.143Z,1.13
2017-10-11T08:58:18.991Z,1.27
2017-10-11T09:00:46.891Z,1.70
2017-10-11T09:03:15.250Z,1.00
2017-10-11T09:05:42.884Z,1.30
2017-10-11T09:08:10.565Z,1.37
2017-10-11T09:10:38.134Z,0.83
2017-10-11T09:13:05.898Z,0.80
2017-10-11T09:15:33.475Z,1.00
2017-10-11T09:18:01.090Z,1.00
2017-10-11T09:20:28.674Z,1.00
2017-10-11T09:22:56.261Z,0.87
2017-10-11T09:25:23.876Z,1.00
2017-10-11T09:27:52.375Z,0.90
2017-10-11T09:30:20.019Z,1.33
2017-10-11T09:32:48.386Z,1.27
2017-10-11T09:35:16.003Z,0.87
2017-10-11T09:37:43.605Z,0.90
2017-10-11T09:40:11.509Z,1.10
2017-10-11T09:42:39.861Z,1.20
2017-10-11T09:45:07.439Z,1.10
2017-10-11T09:47:35.035Z,1.50
2017-10-11T09:50:02.616Z,1.00
2017-10-11T09:52:30.205Z,1.40
2017-10-11T09:54:57.764Z,1.17
2017-10-11T09:57:25.359Z,1.30
2017-10-11T09:59:53.132Z,0.90
2017-10-11T10:02:20.782Z,0.77
2017-10-11T10:04:49.527Z,0.80
2017-10-11T10:07:17.404Z,1.23
2017-10-11T10:09:45.005Z,1.07
2017-10-11T10:12:12.631Z,1.37
2017-10-11T10:14:40.252Z,1.40
2017-10-11T10:17:08.577Z,1.30
2017-10-11T10:19:36.173Z,1.23
2017-10-11T10:22:03.729Z,1.40
2017-10-11T10:24:31.289Z,1.40
2017-10-11T10:26:58.879Z,1.70
2017-10-11T10:29:27.237Z,1.33
2017-10-11T10:31:54.840Z,1.40
2017-10-11T10:34:23.179Z,1.33
2017-10-11T10:36:50.754Z,1.73
2017-10-11T10:39:18.321Z,1.60
2017-10-11T10:41:46.063Z,1.33
2017-10-11T10:44:13.640Z,1.17
2017-10-11T10:46:42.843Z,1.00
2017-10-11T10:49:10.490Z,2.23
2017-10-11T10:51:38.055Z,2.40
2017-10-11T10:54:05.654Z,2.07
2017-10-11T10:56:33.233Z,2.13
2017-10-11T10:59:01.592Z,2.13
2017-10-11T11:01:29.232Z,2.53
2017-10-11T11:03:56.817Z,2.00
2017-10-11T11:06:24.423Z,2.00
2017-10-11T11:08:52.756Z,1.50
2017-10-11T11:11:20.316Z,1.83
2017-10-11T11:13:47.897Z,2.23
2017-10-11T11:16:15.490Z,2.20
2017-10-11T11:18:44.338Z,1.67
2017-10-11T11:21:12.852Z,1.97
2017-10-11T11:23:40.445Z,2.07
2017-10-11T11:26:08.779Z,2.87
2017-10-11T11:28:36.424Z,2.60
2017-10-11T11:31:04.005Z,1.93
2017-10-11T11:33:31.647Z,2.17
2017-10-11T11:35:59.255Z,2.40
2017-10-11T11:38:27.595Z,2.60
2017-10-11T11:40:55.281Z,2.77
2017-10-11T11:43:22.883Z,2.77
2017-10-11T11:45:50.704Z,2.10
2017-10-11T11:48:18.302Z,1.90
2017-10-11T11:50:47.394Z,2.53
2017-10-11T11:53:15.740Z,2.43
2017-10-11T11:55:43.330Z,2.07
2017-10-11T11:58:10.985Z,2.67
2017-10-11T12:00:38.639Z,1.93
2017-10-11T12:03:06.218Z,2.40
2017-10-11T12:05:33.823Z,2.50
2017-10-11T12:08:02.162Z,1.73
2017-10-11T12:10:29.763Z,1.80
2017-10-11T12:12:57.334Z,2.50
2017-10-11T12:15:25.705Z,2.30
2017-10-11T12:17:54.082Z,1.67
2017-10-11T12:20:21.706Z,2.20
2017-10-11T12:22:49.333Z,2.10
2017-10-11T12:25:17.696Z,2.13
2017-10-11T12:27:45.328Z,2.70
2017-10-11T12:30:13.028Z,2.20
2017-10-11T12:32:40.810Z,1.80
2017-10-11T12:35:09.205Z,2.03
2017-10-11T12:37:37.656Z,2.97
2017-10-11T12:40:05.533Z,2.13
2017-10-11T12:42:33.934Z,2.80
2017-10-11T12:45:02.278Z,2.00
2017-10-11T12:47:30.596Z,2.60
2017-10-11T12:49:58.970Z,2.10
2017-10-11T12:52:26.692Z,2.43
2017-10-11T12:54:54.302Z,1.63
2017-10-11T12:57:21.898Z,2.57
2017-10-11T12:59:49.587Z,1.60
2017-10-11T13:02:17.177Z,2.10
2017-10-11T13:04:44.915Z,2.50
2017-10-11T13:07:12.507Z,2.20
2017-10-11T13:09:40.110Z,2.30
2017-10-11T13:12:08.683Z,2.10
2017-10-11T13:14:37.043Z,1.70
2017-10-11T13:17:04.611Z,1.80
2017-10-11T13:19:32.225Z,2.33
2017-10-11T13:21:59.935Z,2.00
2017-10-11T13:24:27.505Z,2.13
2017-10-11T13:26:55.109Z,1.80
2017-10-11T13:29:22.665Z,2.53
2017-10-11T13:31:51.053Z,2.00
2017-10-11T13:34:19.394Z,1.67
2017-10-11T13:36:46.978Z,2.17
2017-10-11T13:39:15.351Z,2.13
2017-10-11T13:41:42.963Z,2.17
2017-10-11T13:44:10.585Z,2.80
2017-10-11T13:46:38.161Z,1.93
2017-10-11T13:49:06.495Z,2.07
2017-10-11T13:51:34.100Z,2.30
2017-10-11T13:54:01.694Z,2.77
2017-10-11T13:56:29.301Z,2.70
2017-10-11T13:58:56.878Z,2.47
2017-10-11T14:01:25.262Z,2.70
2017-10-11T14:03:52.830Z,2.00
2017-10-11T14:06:21.181Z,2.93
2017-10-11T14:08:48.844Z,2.00
2017-10-11T14:11:16.426Z,2.40
2017-10-11T14:13:44.892Z,2.50
2017-10-11T14:16:12.467Z,2.43
2017-10-11T14:18:40.075Z,1.70
2017-10-11T14:21:08.398Z,2.23
2017-10-11T14:23:35.956Z,1.80
2017-10-11T14:26:03.561Z,1.93
2017-10-11T14:28:31.133Z,2.00
2017-10-11T14:30:59.535Z,2.53
2017-10-11T14:33:27.898Z,1.90
2017-10-11T14:35:55.471Z,2.30
2017-10-11T14:38:23.813Z,2.13
2017-10-11T14:40:51.491Z,2.67
2017-10-11T14:43:19.143Z,2.33
2017-10-11T14:45:46.763Z,2.20
2017-10-11T14:48:15.154Z,2.60
2017-10-11T14:50:42.783Z,2.13
2017-10-11T14:53:10.389Z,2.57
2017-10-11T14:55:37.978Z,2.33
2017-10-11T14:58:05.631Z,2.20
2017-10-11T15:00:33.234Z,2.10
2017-10-11T15:03:00.789Z,2.50
2017-10-11T15:05:28.360Z,2.40
2017-10-11T15:07:55.986Z,2.33
2017-10-11T15:10:23.631Z,2.17
2017-10-11T15:12:52.009Z,1.77
2017-10-11T15:15:20.342Z,1.93
2017-10-11T15:17:47.968Z,2.43
2017-10-11T15:20:15.845Z,1.57
2017-10-11T15:22:44.864Z,2.43
2017-10-11T15:25:12.483Z,2.93
2017-10-11T15:27:40.856Z,2.20
2017-10-11T15:30:09.320Z,2.47
2017-10-11T15:32:36.887Z,2.53
2017-10-11T15:35:05.241Z,2.70
2017-10-11T15:37:32.865Z,2.40
2017-10-11T15:40:01.214Z,2.17
2017-10-11T15:42:28.782Z,2.30
2017-10-11T15:44:56.372Z,2.27
2017-10-11T15:47:24.724Z,2.57
2017-10-11T15:49:52.321Z,2.07
2017-10-11T15:52:20.957Z,2.23
2017-10-11T15:54:48.632Z,2.50
2017-10-11T15:57:16.216Z,2.00
2017-10-11T15:59:44.753Z,2.43
2017-10-11T16:02:12.533Z,1.60
2017-10-11T16:04:40.142Z,2.23
2017-10-11T16:07:07.717Z,2.97
2017-10-11T16:09:36.093Z,2.57
2017-10-11T16:12:04.453Z,2.43
2017-10-11T16:14:32.029Z,2.17
2017-10-11T16:16:59.646Z,1.67
2017-10-11T16:19:27.343Z,1.80
2017-10-11T16:21:54.980Z,3.47
2017-10-11T16:24:22.607Z,2.20
2017-10-11T16:26:50.980Z,2.17
2017-10-11T16:29:19.432Z,2.37
2017-10-11T16:31:47.073Z,3.03
2017-10-11T16:34:14.850Z,2.63
2017-10-11T16:36:42.593Z,2.23
2017-10-11T16:39:10.304Z,1.73
2017-10-11T16:41:37.896Z,2.60
2017-10-11T16:44:05.455Z,2.07
2017-10-11T16:46:33.066Z,2.40
2017-10-11T16:49:00.653Z,1.57
2017-10-11T16:51:28.274Z,2.00
2017-10-11T16:53:56.635Z,2.80
2017-10-11T16:56:24.219Z,2.13
2017-10-11T16:58:52.602Z,2.17
2017-10-11T17:01:20.974Z,2.13
2017-10-11T17:03:49.399Z,2.73
2017-10-11T17:06:17.010Z,2.37
2017-10-11T17:08:45.627Z,2.00
2017-10-11T17:11:14.425Z,2.40
2017-10-11T17:13:41.995Z,2.67
2017-10-11T17:16:09.556Z,1.97
2017-10-11T17:18:37.147Z,2.77
2017-10-11T17:21:04.735Z,1.83
2017-10-11T17:23:32.357Z,2.03
2017-10-11T17:25:59.928Z,2.60
2017-10-11T17:28:27.493Z,2.23
2017-10-11T17:30:55.105Z,2.33
2017-10-11T17:33:22.720Z,2.07
2017-10-11T17:35:50.322Z,2.17
2017-10-11T17:38:17.883Z,2.57
2017-10-11T17:40:46.340Z,2.97
2017-10-11T17:43:14.109Z,2.17
2017-10-11T17:45:41.712Z,1.73
2017-10-11T17:48:09.320Z,2.30
2017-10-11T17:50:36.916Z,2.30
2017-10-11T17:53:05.383Z,2.03
2017-10-11T17:55:32.982Z,2.17
2017-10-11T17:58:00.548Z,2.20
2017-10-11T18:00:28.914Z,2.27
2017-10-11T18:02:56.483Z,1.60
2017-10-11T18:05:24.067Z,1.80
2017-10-11T18:07:51.790Z,1.67
2017-10-11T18:10:19.363Z,1.40
2017-10-11T18:12:47.017Z,1.80
2017-10-11T18:15:15.129Z,1.73
2017-10-11T18:17:42.695Z,1.50
2017-10-11T18:20:11.070Z,2.20
2017-10-11T18:22:39.028Z,1.83
2017-10-11T18:25:07.431Z,1.50
2017-10-11T18:27:35.060Z,1.50
2017-10-11T18:30:02.673Z,1.83
2017-10-11T18:32:30.245Z,1.43
2017-10-11T18:34:58.622Z,2.13
2017-10-11T18:37:26.969Z,1.33
2017-10-11T18:39:54.585Z,2.13
2017-10-11T18:42:23.207Z,1.80
2017-10-11T18:44:50.973Z,1.50
2017-10-11T18:47:18.850Z,2.20
2017-10-11T18:49:46.441Z,2.80
2017-10-11T18:52:14.028Z,2.07
2017-10-11T18:54:42.468Z,2.13
2017-10-11T18:57:10.224Z,2.40
2017-10-11T18:59:37.854Z,2.27
2017-10-11T19:02:06.381Z,1.60
2017-10-11T19:04:33.996Z,2.10
2017-10-11T19:07:02.337Z,1.97
2017-10-11T19:09:30.191Z,1.70
2017-10-11T19:11:57.963Z,2.00
2017-10-11T19:14:26.136Z,1.60
2017-10-11T19:16:53.816Z,1.47
2017-10-11T19:19:21.436Z,1.50
2017-10-11T19:21:50.056Z,1.93
2017-10-11T19:24:17.830Z,2.00
2017-10-11T19:26:45.700Z,1.97
2017-10-11T19:29:13.467Z,1.57
2017-10-11T19:31:41.055Z,2.10
2017-10-11T19:34:08.709Z,1.87
2017-10-11T19:36:36.414Z,2.40
2017-10-11T19:39:04.944Z,2.50
2017-10-11T19:41:32.614Z,2.17
2017-10-11T19:44:00.213Z,1.50
2017-10-11T19:46:27.812Z,2.23
2017-10-11T19:48:55.482Z,2.17
2017-10-11T19:51:23.279Z,2.00
2017-10-11T19:53:50.880Z,1.93
2017-10-11T19:56:19.282Z,2.20
2017-10-11T19:58:47.687Z,2.07
2017-10-11T20:01:15.476Z,2.07
2017-10-11T20:03:43.058Z,2.17
2017-10-11T20:06:10.632Z,1.67
2017-10-11T20:08:38.268Z,1.80
2017-10-11T20:11:05.864Z,1.67
2017-10-11T20:13:33.467Z,1.77
2017-10-11T20:16:01.093Z,2.50
2017-10-11T20:18:28.744Z,2.27
2017-10-11T20:20:56.387Z,2.50
2017-10-11T20:23:24.298Z,2.00
2017-10-11T20:25:52.140Z,2.97
2017-10-11T20:28:19.722Z,1.60
2017-10-11T20:30:47.294Z,1.90
2017-10-11T20:33:14.887Z,2.23
2017-10-11T20:35:42.474Z,2.10
2017-10-11T20:38:10.089Z,1.90
2017-10-11T20:40:37.644Z,2.57
2017-10-11T20:43:05.206Z,2.60
2017-10-11T20:45:32.801Z,1.50
2017-10-11T20:48:01.806Z,2.43
2017-10-11T20:50:30.225Z,1.90
2017-10-11T20:52:58.092Z,2.10
2017-10-11T20:55:25.700Z,1.43
2017-10-11T20:57:53.300Z,1.70
2017-10-11T21:00:21.822Z,1.60
2017-10-11T21:02:49.515Z,1.93
2017-10-11T21:05:18.071Z,1.47
2017-10-11T21:07:45.654Z,1.57
2017-10-11T21:10:13.247Z,1.63
2017-10-11T21:12:40.870Z,1.93
2017-10-11T21:15:08.479Z,1.77
2017-10-11T21:17:36.061Z,1.50
2017-10-11T21:20:04.438Z,2.00
2017-10-11T21:22:32.930Z,2.00
2017-10-11T21:25:00.542Z,1.50
2017-10-11T21:27:28.184Z,1.80
2017-10-11T21:29:55.785Z,1.27
2017-10-11T21:32:24.141Z,1.60
2017-10-11T21:34:51.744Z,1.20
2017-10-11T21:37:20.165Z,1.33
2017-10-11T21:39:47.794Z,1.30
2017-10-11T21:42:15.431Z,1.60
2017-10-11T21:44:43.083Z,1.40
2017-10-11T21:47:10.754Z,1.73
2017-10-11T21:49:38.339Z,1.47
2017-10-11T21:52:05.924Z,1.40
2017-10-11T21:54:34.240Z,1.43
2017-10-11T21:57:01.949Z,1.30
2017-10-11T21:59:30.113Z,1.33
2017-10-11T22:01:58.000Z,1.50
2017-10-11T22:04:26.412Z,1.50
2017-10-11T22:06:54.062Z,1.53
2017-10-11T22:09:21.641Z,1.40
2017-10-11T22:11:50.099Z,1.30
2017-10-11T22:14:17.744Z,1.63
2017-10-11T22:16:45.318Z,1.70
2017-10-11T22:19:12.887Z,1.20
2017-10-11T22:21:40.955Z,1.40
2017-10-11T22:24:08.712Z,1.70
2017-10-11T22:26:36.321Z,1.27
2017-10-11T22:29:04.655Z,1.20
2017-10-11T22:31:32.274Z,2.00
2017-10-11T22:34:00.499Z,1.27
2017-10-11T22:36:28.212Z,1.57
2017-10-11T22:38:56.599Z,1.30
2017-10-11T22:41:24.944Z,1.27
2017-10-11T22:43:52.558Z,1.47
2017-10-11T22:46:20.163Z,0.90
2017-10-11T22:48:47.720Z,1.90
2017-10-11T22:51:15.323Z,1.63
2017-10-11T22:53:42.894Z,1.20
2017-10-11T22:56:10.484Z,2.03
2017-10-11T22:58:38.176Z,2.10
2017-10-11T23:01:05.748Z,1.53
2017-10-11T23:03:34.157Z,1.90
2017-10-11T23:06:01.738Z,1.70
2017-10-11T23:08:29.357Z,2.53
2017-10-11T23:10:56.969Z,1.57
2017-10-11T23:13:24.906Z,2.00
2017-10-11T23:15:52.625Z,2.37
2017-10-11T23:18:21.018Z,1.53
2017-10-11T23:20:48.618Z,1.60
2017-10-11T23:23:16.203Z,1.50
2017-10-11T23:25:43.775Z,2.30
2017-10-11T23:28:11.382Z,1.70
2017-10-11T23:30:38.951Z,1.40
2017-10-11T23:33:06.603Z,1.60
2017-10-11T23:35:34.191Z,1.80
2017-10-11T23:38:01.851Z,2.13
2017-10-11T23:40:29.478Z,1.50
2017-10-11T23:42:57.169Z,1.80
2017-10-11T23:45:25.007Z,1.23
2017-10-11T23:47:52.604Z,1.30
2017-10-11T23:50:20.226Z,1.20
2017-10-11T23:52:48.577Z,1.77
2017-10-11T23:55:16.155Z,1.10
2017-10-11T23:57:43.765Z,1.80
